createdAt,value
2023-05-07T00:01:22.346Z,11.05
2023-05-07T00:03:49.234Z,11.02
2023-05-07T00:06:15.961Z,10.98
2023-05-07T00:08:42.402Z,10.97
2023-05-07T00:11:09.961Z,11.00
2023-05-07T00:13:36.665Z,11.00
2023-05-07T00:16:04.224Z,10.92
2023-05-07T00:18:30.850Z,10.86
2023-05-07T00:20:57.548Z,10.79
2023-05-07T00:23:24.538Z,10.79
2023-05-07T00:25:51.480Z,10.83
2023-05-07T00:28:18.292Z,10.86
2023-05-07T00:30:44.721Z,10.93
2023-05-07T00:33:11.312Z,10.94
2023-05-07T00:35:37.829Z,10.95
2023-05-07T00:38:04.458Z,10.93
2023-05-07T00:40:30.904Z,10.91
2023-05-07T00:42:59.496Z,10.89
2023-05-07T00:45:30.051Z,10.93
2023-05-07T00:48:00.786Z,10.99
2023-05-07T00:50:27.844Z,11.01
2023-05-07T00:52:54.909Z,10.99
2023-05-07T00:55:22.585Z,10.99
2023-05-07T00:57:50.608Z,10.96
2023-05-07T01:00:18.287Z,11.00
2023-05-07T01:02:45.079Z,10.98
2023-05-07T01:05:13.983Z,10.95
2023-05-07T01:07:43.304Z,10.94
2023-05-07T01:10:11.733Z,10.96
2023-05-07T01:12:41.149Z,11.00
2023-05-07T01:15:09.449Z,10.98
2023-05-07T01:17:42.107Z,10.96
2023-05-07T01:20:10.430Z,10.93
2023-05-07T01:22:40.636Z,11.04
2023-05-07T01:25:09.351Z,11.11
2023-05-07T01:27:37.790Z,11.13
2023-05-07T01:30:08.271Z,11.08
2023-05-07T01:33:00.037Z,11.04
2023-05-07T01:35:31.181Z,10.99
2023-05-07T01:37:58.485Z,10.99
2023-05-07T01:40:26.864Z,10.95
2023-05-07T01:42:55.420Z,10.94
2023-05-07T01:45:22.247Z,10.97
2023-05-07T01:47:50.658Z,10.91
2023-05-07T01:50:19.645Z,10.85
2023-05-07T01:52:46.468Z,10.83
2023-05-07T01:55:13.877Z,10.76
2023-05-07T01:57:40.931Z,10.67
2023-05-07T02:00:10.095Z,10.60
2023-05-07T02:02:37.420Z,10.55
2023-05-07T02:05:04.287Z,10.47
2023-05-07T02:07:30.792Z,10.45
2023-05-07T02:09:57.464Z,10.43
2023-05-07T02:12:24.396Z,10.45
2023-05-07T02:14:51.032Z,10.45
2023-05-07T02:17:17.699Z,10.47
2023-05-07T02:19:44.358Z,10.53
2023-05-07T02:22:11.377Z,10.65
2023-05-07T02:24:37.834Z,10.80
2023-05-07T02:27:05.426Z,10.88
2023-05-07T02:29:31.842Z,10.86
2023-05-07T02:31:58.327Z,10.79
2023-05-07T02:34:24.836Z,10.76
2023-05-07T02:36:51.301Z,10.77
2023-05-07T02:39:18.833Z,10.71
2023-05-07T02:41:45.365Z,10.65
2023-05-07T02:44:11.898Z,10.56
2023-05-07T02:46:38.329Z,10.42
2023-05-07T02:49:05.104Z,10.31
2023-05-07T02:51:32.007Z,10.27
2023-05-07T02:53:58.889Z,10.25
2023-05-07T02:56:27.431Z,10.23
2023-05-07T02:58:54.361Z,10.23
2023-05-07T03:01:21.860Z,10.25
2023-05-07T03:03:48.756Z,10.28
2023-05-07T03:06:16.644Z,10.28
2023-05-07T03:08:44.092Z,10.32
2023-05-07T03:11:11.045Z,10.36
2023-05-07T03:13:37.577Z,10.50
2023-05-07T03:16:04.133Z,10.54
2023-05-07T03:18:30.877Z,10.52
2023-05-07T03:20:57.420Z,10.48
2023-05-07T03:23:24.999Z,10.45
2023-05-07T03:25:51.918Z,10.40
2023-05-07T03:28:18.880Z,10.38
2023-05-07T03:30:46.597Z,10.33
2023-05-07T03:33:13.133Z,10.29
2023-05-07T03:35:39.605Z,10.26
2023-05-07T03:38:06.363Z,10.24
2023-05-07T03:40:33.383Z,10.21
2023-05-07T03:43:01.743Z,10.18
2023-05-07T03:45:28.418Z,10.18
2023-05-07T03:47:55.609Z,10.17
2023-05-07T03:50:22.257Z,10.16
2023-05-07T03:52:49.294Z,10.15
2023-05-07T03:55:15.733Z,10.13
2023-05-07T03:57:42.225Z,10.11
2023-05-07T04:00:10.873Z,10.07
2023-05-07T04:02:37.859Z,10.03
2023-05-07T04:05:04.692Z,10.00
2023-05-07T04:07:31.274Z,9.98
2023-05-07T04:09:57.959Z,9.95
2023-05-07T04:12:24.536Z,9.94
2023-05-07T04:14:51.187Z,9.92
2023-05-07T04:17:17.731Z,9.88
2023-05-07T04:19:46.284Z,9.80
2023-05-07T04:22:13.136Z,9.78
2023-05-07T04:24:39.697Z,9.76
2023-05-07T04:27:09.882Z,9.76
2023-05-07T04:29:36.618Z,9.78
2023-05-07T04:32:03.148Z,9.77
2023-05-07T04:34:29.652Z,9.80
2023-05-07T04:36:59.847Z,9.84
2023-05-07T04:39:26.577Z,9.92
2023-05-07T04:41:53.147Z,9.97
2023-05-07T04:44:19.566Z,10.11
2023-05-07T04:46:46.273Z,10.26
2023-05-07T04:49:12.750Z,10.43
2023-05-07T04:51:39.674Z,10.56
2023-05-07T04:54:06.199Z,10.61
2023-05-07T04:56:33.066Z,10.58
2023-05-07T04:58:59.626Z,10.61
2023-05-07T05:01:26.272Z,10.65
2023-05-07T05:03:53.095Z,10.78
2023-05-07T05:06:19.553Z,10.90
2023-05-07T05:08:46.140Z,11.01
2023-05-07T05:11:12.595Z,11.16
2023-05-07T05:13:39.606Z,11.34
2023-05-07T05:16:07.164Z,11.63
2023-05-07T05:18:33.870Z,12.02
2023-05-07T05:21:00.474Z,12.21
2023-05-07T05:23:27.164Z,12.18
2023-05-07T05:26:00.055Z,12.17
2023-05-07T05:28:26.741Z,12.19
2023-05-07T05:30:53.661Z,12.20
2023-05-07T05:33:20.696Z,12.14
2023-05-07T05:35:47.144Z,11.91
2023-05-07T05:38:14.909Z,11.98
2023-05-07T05:40:41.433Z,11.81
2023-05-07T05:43:09.404Z,11.76
2023-05-07T05:45:36.302Z,11.82
2023-05-07T05:48:03.195Z,12.03
2023-05-07T05:50:29.642Z,12.29
2023-05-07T05:52:57.565Z,12.50
2023-05-07T05:55:24.504Z,12.44
2023-05-07T05:58:01.456Z,12.41
2023-05-07T06:00:28.780Z,12.52
2023-05-07T06:02:56.063Z,12.74
2023-05-07T06:05:22.960Z,13.02
2023-05-07T06:07:50.122Z,13.40
2023-05-07T06:10:17.912Z,13.82
2023-05-07T06:12:44.718Z,14.51
2023-05-07T06:15:11.977Z,14.42
2023-05-07T06:17:38.832Z,13.87
2023-05-07T06:20:06.600Z,13.58
2023-05-07T06:22:34.358Z,13.58
2023-05-07T06:25:01.084Z,13.27
2023-05-07T06:27:29.457Z,13.04
2023-05-07T06:29:56.318Z,12.98
2023-05-07T06:32:23.305Z,13.01
2023-05-07T06:34:50.793Z,13.01
2023-05-07T06:37:17.576Z,13.10
2023-05-07T06:39:44.207Z,13.22
2023-05-07T06:42:11.029Z,13.20
2023-05-07T06:44:37.854Z,13.10
2023-05-07T06:47:04.764Z,13.02
2023-05-07T06:49:32.692Z,12.97
2023-05-07T06:51:59.556Z,12.89
2023-05-07T06:54:26.162Z,12.98
2023-05-07T06:56:52.840Z,13.10
2023-05-07T06:59:20.419Z,13.07
2023-05-07T07:01:48.493Z,13.26
2023-05-07T07:04:15.744Z,13.40
2023-05-07T07:06:43.562Z,13.55
2023-05-07T07:09:10.295Z,13.75
2023-05-07T07:11:37.022Z,14.09
2023-05-07T07:14:03.794Z,14.40
2023-05-07T07:16:30.391Z,14.25
2023-05-07T07:18:58.094Z,14.34
2023-05-07T07:21:24.717Z,14.54
2023-05-07T07:23:51.245Z,14.55
2023-05-07T07:26:19.111Z,14.66
2023-05-07T07:28:48.757Z,14.93
2023-05-07T07:31:15.737Z,14.90
2023-05-07T07:33:43.171Z,14.93
2023-05-07T07:36:09.875Z,15.41
2023-05-07T07:38:36.501Z,15.48
2023-05-07T07:41:03.570Z,15.54
2023-05-07T07:43:30.381Z,15.73
2023-05-07T07:45:57.091Z,15.88
2023-05-07T07:48:23.875Z,15.53
2023-05-07T07:50:55.462Z,15.79
2023-05-07T07:53:22.241Z,15.82
2023-05-07T07:55:50.580Z,15.72
2023-05-07T07:58:18.523Z,16.03
2023-05-07T08:00:45.309Z,16.56
2023-05-07T08:03:12.081Z,16.70
2023-05-07T08:05:39.470Z,16.86
2023-05-07T08:08:07.229Z,16.67
2023-05-07T08:10:39.507Z,16.77
2023-05-07T08:13:06.933Z,17.08
2023-05-07T08:15:33.823Z,17.35
2023-05-07T08:18:01.485Z,17.44
2023-05-07T08:20:29.074Z,17.51
2023-05-07T08:22:55.747Z,17.83
2023-05-07T08:25:22.552Z,17.88
2023-05-07T08:27:49.410Z,18.22
2023-05-07T08:30:16.550Z,18.01
2023-05-07T08:32:43.125Z,17.67
2023-05-07T08:35:10.098Z,18.13
2023-05-07T08:37:36.677Z,18.65
2023-05-07T08:40:04.686Z,19.03
2023-05-07T08:42:34.673Z,18.97
2023-05-07T08:45:03.449Z,18.87
2023-05-07T08:47:42.100Z,19.37
2023-05-07T08:50:10.593Z,19.40
2023-05-07T08:52:38.174Z,19.36
2023-05-07T08:55:05.541Z,19.78
2023-05-07T08:57:32.313Z,19.90
2023-05-07T08:59:58.839Z,19.96
2023-05-07T09:02:25.675Z,19.33
2023-05-07T09:04:54.031Z,19.15
2023-05-07T09:07:21.711Z,19.20
2023-05-07T09:09:48.556Z,18.61
2023-05-07T09:12:15.397Z,18.77
2023-05-07T09:14:41.836Z,18.90
2023-05-07T09:17:08.881Z,19.03
2023-05-07T09:19:35.958Z,18.71
2023-05-07T09:22:05.219Z,19.12
2023-05-07T09:24:36.380Z,19.35
2023-05-07T09:27:03.648Z,19.25
2023-05-07T09:29:31.512Z,18.92
2023-05-07T09:31:58.215Z,18.92
2023-05-07T09:34:25.036Z,18.83
2023-05-07T09:36:51.923Z,19.12
2023-05-07T09:39:18.772Z,19.34
2023-05-07T09:41:47.141Z,19.42
2023-05-07T09:44:15.513Z,19.39
2023-05-07T09:46:51.486Z,19.27
2023-05-07T09:49:22.852Z,19.48
2023-05-07T09:51:53.096Z,19.67
2023-05-07T09:54:20.638Z,19.39
2023-05-07T09:56:49.594Z,19.25
2023-05-07T09:59:17.805Z,19.00
2023-05-07T10:01:45.686Z,19.19
2023-05-07T10:04:13.405Z,19.10
2023-05-07T10:06:42.986Z,19.10
2023-05-07T10:09:09.844Z,19.19
2023-05-07T10:11:38.629Z,19.26
2023-05-07T10:14:09.030Z,19.14
2023-05-07T10:16:37.804Z,18.76
2023-05-07T10:19:05.905Z,19.28
2023-05-07T10:21:54.222Z,19.24
2023-05-07T10:24:26.498Z,19.36
2023-05-07T10:26:54.832Z,19.58
2023-05-07T10:29:46.506Z,19.86
2023-05-07T10:32:36.597Z,19.42
2023-05-07T10:35:07.901Z,19.26
2023-05-07T10:37:35.591Z,19.73
2023-05-07T10:40:02.815Z,19.59
2023-05-07T10:42:30.694Z,19.18
2023-05-07T10:44:57.778Z,19.04
2023-05-07T10:47:24.818Z,19.29
2023-05-07T10:50:11.400Z,19.79
2023-05-07T10:52:38.838Z,20.14
2023-05-07T10:55:22.233Z,20.29
2023-05-07T10:57:48.828Z,19.73
2023-05-07T11:00:38.087Z,19.24
2023-05-07T11:03:07.822Z,19.59
2023-05-07T11:05:37.563Z,19.88
2023-05-07T11:08:06.526Z,19.86
2023-05-07T11:10:53.252Z,20.14
2023-05-07T11:13:40.216Z,20.19
2023-05-07T11:16:21.656Z,20.03
2023-05-07T11:18:50.960Z,19.68
2023-05-07T11:21:34.636Z,19.51
2023-05-07T11:24:02.809Z,19.68
2023-05-07T11:26:32.272Z,20.05
2023-05-07T11:29:01.335Z,19.83
2023-05-07T11:31:29.714Z,19.50
2023-05-07T11:33:57.048Z,19.89
2023-05-07T11:36:24.775Z,20.11
2023-05-07T11:38:51.418Z,20.24
2023-05-07T11:41:19.541Z,20.12
2023-05-07T11:43:57.461Z,19.95
2023-05-07T11:46:24.286Z,19.69
2023-05-07T11:48:51.361Z,19.27
2023-05-07T11:51:26.939Z,19.07
2023-05-07T11:53:54.620Z,19.04
2023-05-07T11:56:21.732Z,19.20
2023-05-07T11:58:49.585Z,18.87
2023-05-07T12:01:17.415Z,18.71
2023-05-07T12:03:47.335Z,18.89
2023-05-07T12:06:16.618Z,19.08
2023-05-07T12:08:45.804Z,18.90
2023-05-07T12:11:23.138Z,18.63
2023-05-07T12:13:49.621Z,18.35
2023-05-07T12:16:16.625Z,18.27
2023-05-07T12:18:44.013Z,18.09
2023-05-07T12:21:11.023Z,18.03
2023-05-07T12:23:38.156Z,17.93
2023-05-07T12:26:07.429Z,17.56
2023-05-07T12:28:39.430Z,17.35
2023-05-07T12:31:06.875Z,17.09
2023-05-07T12:33:34.036Z,17.00
2023-05-07T12:36:08.150Z,16.89
2023-05-07T12:38:39.840Z,16.58
2023-05-07T12:41:08.319Z,16.42
2023-05-07T12:43:35.291Z,16.36
2023-05-07T12:46:07.168Z,16.28
2023-05-07T12:48:34.378Z,16.10
2023-05-07T12:51:02.824Z,15.75
2023-05-07T12:53:30.254Z,15.62
2023-05-07T12:56:06.339Z,15.42
2023-05-07T12:58:35.766Z,15.04
2023-05-07T13:01:07.539Z,14.66
2023-05-07T13:03:39.028Z,14.49
2023-05-07T13:06:11.012Z,14.20
2023-05-07T13:08:41.688Z,13.96
2023-05-07T13:11:09.614Z,13.91
2023-05-07T13:13:37.465Z,13.92
2023-05-07T13:16:05.470Z,13.85
2023-05-07T13:18:33.123Z,13.79
2023-05-07T13:21:01.386Z,13.64
2023-05-07T13:23:28.883Z,13.55
2023-05-07T13:25:56.713Z,13.52
2023-05-07T13:28:24.408Z,13.57
2023-05-07T13:30:52.873Z,13.79
2023-05-07T13:33:19.600Z,14.05
2023-05-07T13:35:46.157Z,14.38
2023-05-07T13:38:12.633Z,14.55
2023-05-07T13:40:39.144Z,14.86
2023-05-07T13:43:06.806Z,14.92
2023-05-07T13:45:33.550Z,15.05
2023-05-07T13:48:00.354Z,15.04
2023-05-07T13:50:31.019Z,14.82
2023-05-07T13:52:57.662Z,14.73
2023-05-07T13:55:25.471Z,14.82
2023-05-07T13:58:00.241Z,15.14
2023-05-07T14:00:28.061Z,15.22
2023-05-07T14:02:56.026Z,15.38
2023-05-07T14:05:26.244Z,15.46
2023-05-07T14:07:53.501Z,15.96
2023-05-07T14:10:20.641Z,15.83
2023-05-07T14:12:48.105Z,15.81
2023-05-07T14:15:15.080Z,15.77
2023-05-07T14:17:41.792Z,15.78
2023-05-07T14:20:10.303Z,16.25
2023-05-07T14:22:39.333Z,16.53
2023-05-07T14:25:07.446Z,16.68
2023-05-07T14:27:34.204Z,16.86
2023-05-07T14:30:01.025Z,17.28
2023-05-07T14:32:27.623Z,17.25
2023-05-07T14:34:54.250Z,17.56
2023-05-07T14:37:21.095Z,17.60
2023-05-07T14:39:50.520Z,17.44
2023-05-07T14:42:18.049Z,17.46
2023-05-07T14:44:46.740Z,17.25
2023-05-07T14:47:14.143Z,17.28
2023-05-07T14:49:41.772Z,17.15
2023-05-07T14:52:11.307Z,17.39
2023-05-07T14:54:39.285Z,17.42
2023-05-07T14:57:07.344Z,17.05
2023-05-07T14:59:33.876Z,16.79
2023-05-07T15:02:05.385Z,16.89
2023-05-07T15:04:32.754Z,16.62
2023-05-07T15:06:59.194Z,16.55
2023-05-07T15:09:25.771Z,16.44
2023-05-07T15:11:52.658Z,16.17
2023-05-07T15:14:19.469Z,16.19
2023-05-07T15:16:47.100Z,16.11
2023-05-07T15:19:15.798Z,16.17
2023-05-07T15:21:42.294Z,16.29
2023-05-07T15:24:10.431Z,16.44
2023-05-07T15:26:37.166Z,16.49
2023-05-07T15:29:08.860Z,16.51
2023-05-07T15:31:35.627Z,16.30
2023-05-07T15:34:02.725Z,16.06
2023-05-07T15:36:29.350Z,16.19
2023-05-07T15:38:59.479Z,16.14
2023-05-07T15:41:26.040Z,16.12
2023-05-07T15:43:53.547Z,16.06
2023-05-07T15:46:25.557Z,15.85
2023-05-07T15:48:54.718Z,15.79
2023-05-07T15:51:22.724Z,15.67
2023-05-07T15:53:50.652Z,15.57
2023-05-07T15:56:17.174Z,15.53
2023-05-07T15:58:43.859Z,15.51
2023-05-07T16:01:10.466Z,15.38
2023-05-07T16:03:37.555Z,15.34
2023-05-07T16:06:04.350Z,15.35
2023-05-07T16:08:31.748Z,15.26
2023-05-07T16:10:58.321Z,15.21
2023-05-07T16:13:25.170Z,15.16
2023-05-07T16:16:00.953Z,15.07
2023-05-07T16:18:27.423Z,15.04
2023-05-07T16:20:54.710Z,15.04
2023-05-07T16:23:22.601Z,15.06
2023-05-07T16:25:52.175Z,15.04
2023-05-07T16:28:18.945Z,15.08
2023-05-07T16:30:45.479Z,15.09
2023-05-07T16:33:12.300Z,15.09
2023-05-07T16:35:39.071Z,15.12
2023-05-07T16:38:10.075Z,15.14
2023-05-07T16:40:40.220Z,15.17
2023-05-07T16:43:08.317Z,15.20
2023-05-07T16:45:35.112Z,15.24
2023-05-07T16:48:03.269Z,15.29
2023-05-07T16:50:30.980Z,15.33
2023-05-07T16:52:57.490Z,15.24
2023-05-07T16:55:24.173Z,15.23
2023-05-07T16:57:50.709Z,15.02
2023-05-07T17:00:17.412Z,14.75
2023-05-07T17:02:45.232Z,14.63
2023-05-07T17:05:11.795Z,14.38
2023-05-07T17:07:38.736Z,14.24
2023-05-07T17:10:06.501Z,14.08
2023-05-07T17:12:34.475Z,13.84
2023-05-07T17:15:01.252Z,13.71
2023-05-07T17:17:28.050Z,13.64
2023-05-07T17:19:54.752Z,13.61
2023-05-07T17:22:22.578Z,13.56
2023-05-07T17:24:49.225Z,13.56
2023-05-07T17:27:15.741Z,13.53
2023-05-07T17:29:42.342Z,13.46
2023-05-07T17:32:08.962Z,13.39
2023-05-07T17:34:35.774Z,13.44
2023-05-07T17:37:02.783Z,13.40
2023-05-07T17:39:29.976Z,13.30
2023-05-07T17:41:56.475Z,13.35
2023-05-07T17:44:22.988Z,13.34
2023-05-07T17:46:49.703Z,13.34
2023-05-07T17:49:16.470Z,13.28
2023-05-07T17:51:53.335Z,13.26
2023-05-07T17:54:21.534Z,13.24
2023-05-07T17:56:49.607Z,13.22
2023-05-07T17:59:16.097Z,13.19
2023-05-07T18:01:44.278Z,13.19
2023-05-07T18:04:10.949Z,13.15
2023-05-07T18:06:37.493Z,13.11
2023-05-07T18:09:04.099Z,13.07
2023-05-07T18:11:32.373Z,13.02
2023-05-07T18:13:59.405Z,12.93
2023-05-07T18:16:26.585Z,12.91
2023-05-07T18:18:53.086Z,12.92
2023-05-07T18:21:19.597Z,12.91
2023-05-07T18:23:48.420Z,12.88
2023-05-07T18:26:15.303Z,12.90
2023-05-07T18:28:42.037Z,12.88
2023-05-07T18:31:08.484Z,12.88
2023-05-07T18:33:34.969Z,12.89
2023-05-07T18:36:01.562Z,12.91
2023-05-07T18:38:28.030Z,12.94
2023-05-07T18:41:00.761Z,12.93
2023-05-07T18:43:27.233Z,12.95
2023-05-07T18:45:53.944Z,12.94
2023-05-07T18:48:20.584Z,12.94
2023-05-07T18:50:47.968Z,12.96
2023-05-07T18:53:14.388Z,13.02
2023-05-07T18:55:41.316Z,13.04
2023-05-07T18:58:07.882Z,13.03
2023-05-07T19:00:34.597Z,13.04
2023-05-07T19:03:01.212Z,13.01
2023-05-07T19:05:27.706Z,13.01
2023-05-07T19:07:54.192Z,13.03
2023-05-07T19:10:20.917Z,13.01
2023-05-07T19:12:47.553Z,13.03
2023-05-07T19:15:14.345Z,13.01
2023-05-07T19:17:41.095Z,13.00
2023-05-07T19:20:08.379Z,13.01
2023-05-07T19:22:34.881Z,13.01
2023-05-07T19:25:01.419Z,13.01
2023-05-07T19:27:28.088Z,13.02
2023-05-07T19:29:54.611Z,13.00
2023-05-07T19:32:21.584Z,13.02
2023-05-07T19:34:48.321Z,13.03
2023-05-07T19:37:14.850Z,13.00
2023-05-07T19:39:41.533Z,13.00
2023-05-07T19:42:08.056Z,12.99
2023-05-07T19:44:34.601Z,12.95
2023-05-07T19:47:02.381Z,12.94
2023-05-07T19:49:28.889Z,12.93
2023-05-07T19:51:55.528Z,12.98
2023-05-07T19:54:22.654Z,12.98
2023-05-07T19:56:49.488Z,12.97
2023-05-07T19:59:16.160Z,12.96
2023-05-07T20:01:42.709Z,12.95
2023-05-07T20:04:09.310Z,12.94
2023-05-07T20:06:35.882Z,12.92
2023-05-07T20:09:02.386Z,12.92
2023-05-07T20:11:28.994Z,12.90
2023-05-07T20:13:55.761Z,12.89
2023-05-07T20:16:22.363Z,12.87
2023-05-07T20:18:48.901Z,12.84
2023-05-07T20:21:16.082Z,12.81
2023-05-07T20:23:42.557Z,12.79
2023-05-07T20:26:09.084Z,12.79
2023-05-07T20:28:35.810Z,12.77
2023-05-07T20:31:02.333Z,12.79
2023-05-07T20:33:31.639Z,12.80
2023-05-07T20:35:58.848Z,12.78
2023-05-07T20:38:27.037Z,12.79
2023-05-07T20:40:53.928Z,12.78
2023-05-07T20:43:20.703Z,12.79
2023-05-07T20:45:47.867Z,12.80
2023-05-07T20:48:14.754Z,12.79
2023-05-07T20:50:41.475Z,12.76
2023-05-07T20:53:09.573Z,12.76
2023-05-07T20:55:36.331Z,12.72
2023-05-07T20:58:02.831Z,12.71
2023-05-07T21:00:29.497Z,12.70
2023-05-07T21:02:56.370Z,12.70
2023-05-07T21:05:23.086Z,12.71
2023-05-07T21:07:49.630Z,12.67
2023-05-07T21:10:16.189Z,12.66
2023-05-07T21:12:42.985Z,12.65
2023-05-07T21:15:10.646Z,12.66
2023-05-07T21:17:37.486Z,12.64
2023-05-07T21:20:04.474Z,12.62
2023-05-07T21:22:32.360Z,12.60
2023-05-07T21:25:00.020Z,12.61
2023-05-07T21:27:28.870Z,12.60
2023-05-07T21:30:03.406Z,12.58
2023-05-07T21:32:30.710Z,12.60
2023-05-07T21:34:58.609Z,12.60
2023-05-07T21:37:25.193Z,12.59
2023-05-07T21:39:51.732Z,12.61
2023-05-07T21:42:18.267Z,12.58
2023-05-07T21:44:44.809Z,12.59
2023-05-07T21:47:11.458Z,12.58
2023-05-07T21:49:37.972Z,12.61
2023-05-07T21:52:04.636Z,12.59
2023-05-07T21:54:31.247Z,12.54
2023-05-07T21:56:57.853Z,12.53
2023-05-07T21:59:24.404Z,12.50
2023-05-07T22:01:51.048Z,12.51
2023-05-07T22:04:17.622Z,12.54
2023-05-07T22:06:46.269Z,12.52
2023-05-07T22:09:12.888Z,12.52
2023-05-07T22:11:39.458Z,12.50
2023-05-07T22:14:06.304Z,12.48
2023-05-07T22:16:32.944Z,12.46
2023-05-07T22:18:59.693Z,12.44
2023-05-07T22:21:26.225Z,12.44
2023-05-07T22:23:52.949Z,12.40
2023-05-07T22:26:19.602Z,12.40
2023-05-07T22:28:46.144Z,12.36
2023-05-07T22:31:12.789Z,12.34
2023-05-07T22:33:39.547Z,12.31
2023-05-07T22:36:07.829Z,12.28
2023-05-07T22:38:34.464Z,12.26
2023-05-07T22:41:01.170Z,12.21
2023-05-07T22:43:27.864Z,12.18
2023-05-07T22:45:59.677Z,12.17
2023-05-07T22:48:26.517Z,12.15
2023-05-07T22:50:53.760Z,12.12
2023-05-07T22:53:21.254Z,12.11
2023-05-07T22:55:48.024Z,12.09
2023-05-07T22:58:14.803Z,12.05
2023-05-07T23:00:41.588Z,12.04
2023-05-07T23:03:08.420Z,12.02
2023-05-07T23:05:35.317Z,11.99
2023-05-07T23:08:02.152Z,11.94
2023-05-07T23:10:28.990Z,11.88
2023-05-07T23:12:55.567Z,11.83
2023-05-07T23:15:22.422Z,11.83
2023-05-07T23:17:49.133Z,11.79
2023-05-07T23:20:15.692Z,11.77
2023-05-07T23:22:42.287Z,11.71
2023-05-07T23:25:09.419Z,11.68
2023-05-07T23:27:36.173Z,11.64
2023-05-07T23:30:03.161Z,11.58
2023-05-07T23:32:31.392Z,11.54
2023-05-07T23:34:58.036Z,11.50
2023-05-07T23:37:24.626Z,11.47
2023-05-07T23:39:54.723Z,11.44
2023-05-07T23:42:21.356Z,11.45
2023-05-07T23:44:48.057Z,11.47
2023-05-07T23:47:14.697Z,11.50
2023-05-07T23:49:41.164Z,11.51
2023-05-07T23:52:07.752Z,11.51
2023-05-07T23:54:34.760Z,11.51
2023-05-07T23:57:01.284Z,11.53
2023-05-07T23:59:28.816Z,11.54
